createdAt,value
2022-08-09T00:01:55.326Z,19.23
2022-08-09T00:05:02.862Z,19.16
2022-08-09T00:08:32.199Z,19.07
2022-08-09T00:11:58.441Z,19.01
2022-08-09T00:15:06.283Z,18.92
2022-08-09T00:18:11.104Z,18.87
2022-08-09T00:21:15.842Z,18.84
2022-08-09T00:24:19.792Z,18.73
2022-08-09T00:27:25.550Z,18.74
2022-08-09T00:30:30.556Z,18.78
2022-08-09T00:33:50.466Z,18.69
2022-08-09T00:36:55.846Z,18.67
2022-08-09T00:40:09.836Z,18.58
2022-08-09T00:44:11.267Z,18.51
2022-08-09T00:46:57.221Z,18.63
2022-08-09T00:50:05.384Z,18.79
2022-08-09T00:53:11.830Z,18.67
2022-08-09T00:56:15.224Z,18.48
2022-08-09T00:59:40.461Z,18.35
2022-08-09T01:02:44.287Z,18.30
2022-08-09T01:05:54.103Z,18.18
2022-08-09T01:09:05.370Z,18.22
2022-08-09T01:12:14.862Z,18.27
2022-08-09T01:15:20.240Z,18.14
2022-08-09T01:18:30.600Z,18.21
2022-08-09T01:21:51.232Z,18.11
2022-08-09T01:25:06.644Z,18.10
2022-08-09T01:28:11.466Z,17.96
2022-08-09T01:31:40.963Z,17.93
2022-08-09T01:34:44.831Z,17.92
2022-08-09T01:38:09.630Z,17.87
2022-08-09T01:41:18.510Z,17.77
2022-08-09T01:44:30.671Z,17.80
2022-08-09T01:47:34.049Z,17.73
2022-08-09T01:50:55.157Z,17.72
2022-08-09T01:53:59.395Z,17.70
2022-08-09T01:57:05.519Z,17.65
2022-08-09T02:00:19.435Z,17.77
2022-08-09T02:03:38.038Z,17.68
2022-08-09T02:07:02.568Z,17.58
2022-08-09T02:10:08.612Z,17.58
2022-08-09T02:13:12.929Z,17.58
2022-08-09T02:16:17.864Z,17.57
2022-08-09T02:19:39.213Z,17.46
2022-08-09T02:22:50.006Z,17.44
2022-08-09T02:25:56.833Z,17.44
2022-08-09T02:29:03.236Z,17.41
2022-08-09T02:32:10.747Z,17.38
2022-08-09T02:35:23.120Z,17.27
2022-08-09T02:38:47.873Z,17.25
2022-08-09T02:41:54.968Z,17.20
2022-08-09T02:45:02.015Z,17.15
2022-08-09T02:48:12.253Z,17.19
2022-08-09T02:51:24.248Z,17.18
2022-08-09T02:54:29.572Z,17.11
2022-08-09T02:58:00.032Z,17.12
2022-08-09T03:00:59.270Z,17.08
2022-08-09T03:04:17.597Z,17.09
2022-08-09T03:07:23.193Z,17.01
2022-08-09T03:10:26.944Z,16.96
2022-08-09T03:13:43.675Z,16.92
2022-08-09T03:16:54.215Z,16.84
2022-08-09T03:20:05.099Z,16.87
2022-08-09T03:23:24.162Z,16.83
2022-08-09T03:26:30.879Z,16.77
2022-08-09T03:29:57.056Z,16.84
2022-08-09T03:32:58.728Z,16.89
2022-08-09T03:36:13.715Z,16.87
2022-08-09T03:39:20.080Z,16.76
2022-08-09T03:42:28.937Z,16.72
2022-08-09T03:46:03.832Z,16.71
2022-08-09T03:48:59.522Z,16.58
2022-08-09T03:52:08.910Z,16.60
2022-08-09T03:55:14.311Z,16.59
2022-08-09T03:58:21.286Z,16.55
2022-08-09T04:01:25.089Z,16.49
2022-08-09T04:04:32.498Z,16.46
2022-08-09T04:07:52.297Z,16.46
2022-08-09T04:11:01.407Z,16.55
2022-08-09T04:14:44.026Z,16.52
2022-08-09T04:17:29.624Z,16.54
2022-08-09T04:20:32.768Z,16.54
2022-08-09T04:23:36.883Z,16.50
2022-08-09T04:26:40.852Z,16.60
2022-08-09T04:29:49.370Z,16.57
2022-08-09T04:32:54.225Z,16.69
2022-08-09T04:35:57.229Z,16.74
2022-08-09T04:39:02.397Z,16.81
2022-08-09T04:42:05.655Z,16.90
2022-08-09T04:45:13.094Z,16.91
2022-08-09T04:48:16.244Z,16.94
2022-08-09T04:51:19.022Z,17.09
2022-08-09T04:54:24.579Z,17.13
2022-08-09T04:57:59.360Z,17.16
2022-08-09T05:00:54.738Z,17.26
2022-08-09T05:03:58.719Z,17.32
2022-08-09T05:07:05.868Z,17.38
2022-08-09T05:10:13.218Z,17.50
2022-08-09T05:13:15.845Z,17.61
2022-08-09T05:16:18.581Z,17.71
2022-08-09T05:19:25.689Z,17.78
2022-08-09T05:23:50.594Z,17.85
2022-08-09T05:25:53.069Z,17.99
2022-08-09T05:28:59.540Z,18.06
2022-08-09T05:32:05.861Z,18.18
2022-08-09T05:35:09.668Z,18.35
2022-08-09T05:38:12.387Z,18.52
2022-08-09T05:41:26.112Z,18.67
2022-08-09T05:44:29.050Z,18.81
2022-08-09T05:47:35.765Z,19.00
2022-08-09T05:50:56.915Z,19.07
2022-08-09T05:54:11.384Z,19.20
2022-08-09T05:57:17.610Z,19.29
2022-08-09T06:00:22.048Z,19.34
2022-08-09T06:03:24.910Z,19.42
2022-08-09T06:06:37.701Z,19.53
2022-08-09T06:09:55.234Z,19.63
2022-08-09T06:13:12.246Z,19.78
2022-08-09T06:16:22.575Z,20.07
2022-08-09T06:19:25.310Z,20.54
2022-08-09T06:22:30.438Z,20.46
2022-08-09T06:25:33.195Z,20.45
2022-08-09T06:28:38.756Z,20.47
2022-08-09T06:32:08.530Z,20.47
2022-08-09T06:35:10.103Z,20.59
2022-08-09T06:38:12.770Z,20.74
2022-08-09T06:41:20.484Z,20.83
2022-08-09T06:44:24.676Z,21.02
2022-08-09T06:47:30.205Z,21.17
2022-08-09T06:50:42.817Z,21.33
2022-08-09T06:53:45.862Z,21.48
2022-08-09T06:56:53.834Z,21.57
2022-08-09T07:00:53.058Z,21.67
2022-08-09T07:03:27.623Z,21.83
2022-08-09T07:06:30.800Z,22.00
2022-08-09T07:09:55.468Z,22.10
2022-08-09T07:12:58.276Z,22.33
2022-08-09T07:16:42.347Z,22.49
2022-08-09T07:19:25.045Z,22.69
2022-08-09T07:22:34.627Z,22.77
2022-08-09T07:25:38.871Z,22.80
2022-08-09T07:29:09.411Z,22.99
2022-08-09T07:32:09.941Z,23.13
2022-08-09T07:35:14.701Z,23.26
2022-08-09T07:38:17.630Z,23.33
2022-08-09T07:41:22.124Z,23.43
2022-08-09T07:44:51.054Z,23.63
2022-08-09T07:48:01.569Z,23.85
2022-08-09T07:52:02.833Z,23.85
2022-08-09T07:54:31.604Z,23.75
2022-08-09T07:57:36.031Z,23.92
2022-08-09T08:00:59.205Z,24.14
2022-08-09T08:04:03.765Z,24.41
2022-08-09T08:07:27.052Z,24.50
2022-08-09T08:10:30.453Z,24.66
2022-08-09T08:13:42.585Z,24.87
2022-08-09T08:17:07.796Z,24.86
2022-08-09T08:20:13.772Z,24.81
2022-08-09T08:23:17.820Z,25.03
2022-08-09T08:26:26.495Z,25.16
2022-08-09T08:29:48.725Z,25.22
2022-08-09T08:32:54.271Z,25.34
2022-08-09T08:36:03.424Z,25.63
2022-08-09T08:39:08.471Z,25.81
2022-08-09T08:42:13.834Z,25.89
2022-08-09T08:45:37.168Z,25.96
2022-08-09T08:48:51.162Z,26.19
2022-08-09T08:52:01.768Z,26.36
2022-08-09T08:55:08.239Z,26.49
2022-08-09T08:58:11.636Z,26.78
2022-08-09T09:01:20.814Z,26.86
2022-08-09T09:04:29.984Z,26.94
2022-08-09T09:07:37.314Z,27.00
2022-08-09T09:10:45.542Z,26.87
2022-08-09T09:13:56.418Z,27.02
2022-08-09T09:17:00.961Z,27.25
2022-08-09T09:20:08.323Z,27.17
2022-08-09T09:23:14.052Z,27.32
2022-08-09T09:26:17.317Z,27.59
2022-08-09T09:29:45.710Z,27.64
2022-08-09T09:33:02.868Z,27.98
2022-08-09T09:36:20.521Z,28.02
2022-08-09T09:39:50.323Z,28.03
2022-08-09T09:42:56.636Z,28.15
2022-08-09T09:49:50.227Z,28.34
2022-08-09T09:52:54.884Z,28.57
2022-08-09T09:56:05.481Z,28.46
2022-08-09T09:59:09.480Z,28.36
2022-08-09T10:02:12.932Z,28.44
2022-08-09T10:05:15.612Z,28.62
2022-08-09T10:08:29.671Z,28.67
2022-08-09T10:11:59.623Z,28.80
2022-08-09T10:15:07.416Z,28.94
2022-08-09T10:18:20.586Z,28.84
2022-08-09T10:21:25.057Z,29.00
2022-08-09T10:24:35.966Z,28.91
2022-08-09T10:27:57.291Z,28.92
2022-08-09T10:34:33.942Z,28.98
2022-08-09T10:37:39.070Z,29.23
2022-08-09T10:40:44.707Z,29.09
2022-08-09T10:44:00.920Z,28.93
2022-08-09T10:48:12.679Z,29.14
2022-08-09T10:51:04.743Z,29.16
2022-08-09T10:54:12.279Z,29.32
2022-08-09T10:57:15.794Z,28.97
2022-08-09T11:00:36.388Z,29.33
2022-08-09T11:03:50.530Z,29.35
2022-08-09T11:07:56.934Z,29.30
2022-08-09T11:11:00.925Z,29.45
2022-08-09T11:14:32.009Z,29.53
2022-08-09T11:18:02.674Z,29.56
2022-08-09T11:21:06.106Z,29.81
2022-08-09T11:24:10.555Z,29.83
2022-08-09T11:28:08.102Z,29.82
2022-08-09T11:30:52.881Z,29.89
2022-08-09T11:33:59.373Z,30.00
2022-08-09T11:37:04.731Z,30.22
2022-08-09T11:40:12.802Z,30.35
2022-08-09T11:43:39.606Z,30.34
2022-08-09T11:46:53.097Z,29.94
2022-08-09T11:50:53.241Z,29.89
2022-08-09T11:53:59.822Z,30.02
2022-08-09T11:56:53.020Z,30.23
2022-08-09T11:59:55.707Z,30.31
2022-08-09T12:03:00.687Z,30.38
2022-08-09T12:06:32.893Z,30.34
2022-08-09T12:09:38.205Z,30.38
2022-08-09T12:12:47.989Z,30.33
2022-08-09T12:16:00.740Z,30.44
2022-08-09T12:19:05.485Z,30.64
2022-08-09T12:22:11.034Z,30.86
2022-08-09T12:25:15.242Z,31.01
2022-08-09T12:29:14.326Z,30.98
2022-08-09T12:32:02.036Z,31.19
2022-08-09T12:35:12.535Z,31.22
2022-08-09T12:38:29.601Z,31.44
2022-08-09T12:41:41.241Z,31.56
2022-08-09T12:44:52.012Z,31.74
2022-08-09T12:47:55.451Z,32.13
2022-08-09T12:50:59.259Z,32.46
2022-08-09T12:54:05.737Z,32.64
2022-08-09T12:57:09.530Z,37.44
2022-08-09T13:00:18.802Z,42.35
2022-08-09T13:03:52.728Z,44.55
2022-08-09T13:06:52.001Z,47.13
2022-08-09T13:10:04.218Z,45.45
2022-08-09T13:13:09.490Z,46.39
2022-08-09T13:16:15.770Z,47.56
2022-08-09T13:20:08.484Z,49.10
2022-08-09T13:24:01.822Z,51.09
2022-08-09T13:26:41.682Z,51.82
2022-08-09T13:30:03.514Z,52.98
2022-08-09T13:33:23.896Z,51.89
2022-08-09T13:36:41.468Z,51.92
2022-08-09T13:41:46.502Z,51.65
2022-08-09T13:43:15.482Z,51.08
2022-08-09T13:47:16.671Z,53.28
2022-08-09T13:49:56.092Z,53.39
2022-08-09T13:52:59.798Z,51.71
2022-08-09T13:56:02.462Z,52.56
2022-08-09T13:59:06.425Z,52.28
2022-08-09T14:02:10.567Z,51.07
2022-08-09T14:05:59.218Z,52.13
2022-08-09T14:08:36.694Z,51.06
2022-08-09T14:11:47.287Z,49.85
2022-08-09T14:14:53.660Z,51.49
2022-08-09T14:18:19.362Z,51.07
2022-08-09T14:21:21.068Z,50.47
2022-08-09T14:24:32.524Z,50.84
2022-08-09T14:27:56.850Z,51.08
2022-08-09T14:31:00.428Z,52.74
2022-08-09T14:34:08.006Z,50.84
2022-08-09T14:37:11.132Z,54.47
2022-08-09T14:40:14.101Z,55.47
2022-08-09T14:43:18.698Z,53.99
2022-08-09T14:46:58.976Z,55.02
2022-08-09T14:50:01.655Z,53.11
2022-08-09T14:53:11.653Z,53.06
2022-08-09T14:56:15.016Z,51.42
2022-08-09T14:59:17.875Z,50.93
2022-08-09T15:02:25.446Z,53.66
2022-08-09T15:05:29.565Z,54.66
2022-08-09T15:08:32.313Z,49.34
2022-08-09T15:11:35.025Z,47.71
2022-08-09T15:14:38.942Z,52.08
2022-08-09T15:17:46.123Z,48.44
2022-08-09T15:21:57.884Z,50.88
2022-08-09T15:24:22.564Z,52.37
2022-08-09T15:27:29.281Z,52.23
2022-08-09T15:31:03.061Z,53.85
2022-08-09T15:34:32.057Z,54.08
2022-08-09T15:37:56.135Z,45.87
2022-08-09T15:40:59.639Z,42.42
2022-08-09T15:44:04.898Z,47.66
2022-08-09T15:47:14.284Z,52.59
2022-08-09T15:50:28.936Z,52.84
2022-08-09T15:54:02.752Z,52.51
2022-08-09T15:56:54.965Z,51.91
2022-08-09T15:59:57.628Z,52.08
2022-08-09T16:03:00.273Z,47.49
2022-08-09T16:06:07.250Z,43.26
2022-08-09T16:09:51.136Z,39.71
2022-08-09T16:12:53.584Z,37.28
2022-08-09T16:16:10.586Z,39.53
2022-08-09T16:19:16.050Z,38.42
2022-08-09T16:22:22.060Z,40.18
2022-08-09T16:25:39.964Z,46.56
2022-08-09T16:28:43.427Z,43.25
2022-08-09T16:32:19.085Z,44.19
2022-08-09T16:35:19.395Z,47.85
2022-08-09T16:38:36.976Z,49.96
2022-08-09T16:42:03.127Z,49.93
2022-08-09T16:45:03.975Z,49.45
2022-08-09T16:48:42.403Z,50.34
2022-08-09T16:51:29.732Z,49.30
2022-08-09T16:54:34.976Z,49.56
2022-08-09T16:58:08.970Z,49.35
2022-08-09T17:01:00.698Z,48.31
2022-08-09T17:04:05.403Z,48.60
2022-08-09T17:08:43.816Z,48.42
2022-08-09T17:10:33.337Z,44.70
2022-08-09T17:13:36.365Z,40.36
2022-08-09T17:16:39.493Z,36.91
2022-08-09T17:19:47.572Z,34.76
2022-08-09T17:23:06.069Z,33.57
2022-08-09T17:26:15.009Z,32.88
2022-08-09T17:29:21.007Z,32.24
2022-08-09T17:32:26.759Z,31.76
2022-08-09T17:35:41.302Z,31.41
2022-08-09T17:38:57.584Z,31.19
2022-08-09T17:42:02.817Z,30.86
2022-08-09T17:45:15.890Z,30.66
2022-08-09T17:48:30.624Z,30.40
2022-08-09T17:51:33.461Z,30.09
2022-08-09T17:54:37.276Z,29.96
2022-08-09T17:58:03.221Z,29.75
2022-08-09T18:01:04.533Z,29.54
2022-08-09T18:04:07.262Z,29.33
2022-08-09T18:07:11.777Z,29.14
2022-08-09T18:10:26.487Z,29.00
2022-08-09T18:13:43.073Z,28.83
2022-08-09T18:16:53.958Z,28.64
2022-08-09T18:20:59.838Z,28.42
2022-08-09T18:24:10.480Z,28.29
2022-08-09T18:26:46.623Z,28.17
2022-08-09T18:30:42.606Z,27.94
2022-08-09T18:33:15.298Z,27.76
2022-08-09T18:36:31.888Z,27.52
2022-08-09T18:39:35.391Z,27.34
2022-08-09T18:42:43.829Z,27.18
2022-08-09T18:46:50.074Z,27.09
2022-08-09T18:49:10.757Z,26.85
2022-08-09T18:52:13.456Z,26.75
2022-08-09T18:55:16.407Z,26.51
2022-08-09T18:58:33.202Z,26.25
2022-08-09T19:01:45.042Z,26.07
2022-08-09T19:05:14.475Z,25.99
2022-08-09T19:08:14.000Z,25.76
2022-08-09T19:11:23.789Z,25.59
2022-08-09T19:14:38.318Z,25.53
2022-08-09T19:17:54.868Z,25.39
2022-08-09T19:20:59.308Z,25.09
2022-08-09T19:24:37.975Z,25.03
2022-08-09T19:27:28.741Z,24.96
2022-08-09T19:30:32.464Z,24.90
2022-08-09T19:33:36.797Z,24.78
2022-08-09T19:36:39.525Z,24.69
2022-08-09T19:40:04.270Z,24.66
2022-08-09T19:43:10.420Z,24.53
2022-08-09T19:46:35.923Z,24.45
2022-08-09T19:50:09.568Z,24.26
2022-08-09T19:53:06.500Z,24.28
2022-08-09T19:56:09.271Z,24.26
2022-08-09T19:59:58.386Z,24.12
2022-08-09T20:04:23.694Z,23.87
2022-08-09T20:06:22.386Z,23.80
2022-08-09T20:09:44.434Z,23.75
2022-08-09T20:12:48.118Z,23.57
2022-08-09T20:16:44.226Z,23.42
2022-08-09T20:19:42.599Z,23.24
2022-08-09T20:22:42.871Z,23.12
2022-08-09T20:25:52.557Z,23.04
2022-08-09T20:28:55.969Z,22.98
2022-08-09T20:32:30.049Z,22.94
2022-08-09T20:35:21.830Z,22.81
2022-08-09T20:38:33.890Z,22.82
2022-08-09T20:41:49.019Z,22.78
2022-08-09T20:45:04.498Z,22.70
2022-08-09T20:48:15.741Z,22.70
2022-08-09T20:51:24.446Z,22.52
2022-08-09T20:54:28.988Z,22.45
2022-08-09T20:57:32.295Z,22.45
2022-08-09T21:00:35.351Z,22.30
2022-08-09T21:03:39.362Z,22.27
2022-08-09T21:07:11.659Z,22.18
2022-08-09T21:10:17.297Z,22.13
2022-08-09T21:13:20.416Z,22.13
2022-08-09T21:16:23.027Z,22.06
2022-08-09T21:20:18.006Z,22.09
2022-08-09T21:22:56.014Z,21.99
2022-08-09T21:26:00.967Z,21.88
2022-08-09T21:29:11.920Z,21.93
2022-08-09T21:32:18.774Z,21.92
2022-08-09T21:35:22.065Z,21.71
2022-08-09T21:38:31.310Z,21.98
2022-08-09T21:42:04.189Z,21.86
2022-08-09T21:44:58.732Z,21.64
2022-08-09T21:48:01.839Z,21.53
2022-08-09T21:51:04.319Z,21.47
2022-08-09T21:54:16.638Z,21.38
2022-08-09T21:57:36.882Z,21.41
2022-08-09T22:00:42.702Z,21.31
2022-08-09T22:03:58.998Z,21.39
2022-08-09T22:07:04.826Z,21.40
2022-08-09T22:10:09.223Z,21.34
2022-08-09T22:13:13.300Z,21.36
2022-08-09T22:16:21.178Z,21.40
2022-08-09T22:19:58.865Z,21.30
2022-08-09T22:22:48.971Z,21.16
2022-08-09T22:26:06.209Z,21.10
2022-08-09T22:29:12.825Z,21.12
2022-08-09T22:32:29.956Z,21.09
2022-08-09T22:36:01.309Z,21.01
2022-08-09T22:38:56.947Z,20.92
2022-08-09T22:42:16.190Z,20.86
2022-08-09T22:48:16.874Z,20.94
2022-08-09T22:48:50.593Z,20.98
2022-08-09T22:51:57.099Z,20.86
2022-08-09T22:55:00.336Z,20.91
2022-08-09T22:58:04.920Z,20.89
2022-08-09T23:01:09.199Z,20.92
2022-08-09T23:04:11.882Z,20.97
2022-08-09T23:08:21.024Z,20.95
2022-08-09T23:10:54.886Z,20.89
2022-08-09T23:13:58.763Z,20.97
2022-08-09T23:17:04.679Z,20.82
2022-08-09T23:20:09.468Z,20.73
2022-08-09T23:23:12.176Z,20.86
2022-08-09T23:26:16.602Z,20.84
2022-08-09T23:29:19.206Z,20.71
2022-08-09T23:32:23.182Z,20.74
2022-08-09T23:35:25.969Z,20.70
2022-08-09T23:38:28.588Z,20.62
2022-08-09T23:41:31.332Z,20.57
2022-08-09T23:44:34.240Z,20.46
2022-08-09T23:47:38.566Z,20.37
2022-08-09T23:50:41.211Z,20.42
2022-08-09T23:53:43.772Z,20.50
2022-08-09T23:56:54.898Z,20.42
